createdAt,value
2022-10-05T00:03:25.529Z,47.84
2022-10-05T00:08:31.923Z,47.84
2022-10-05T00:13:33.919Z,48.06
2022-10-05T00:18:35.934Z,47.65
2022-10-05T00:23:37.770Z,47.69
2022-10-05T00:28:41.348Z,47.58
2022-10-05T00:33:43.239Z,47.43
2022-10-05T00:38:45.291Z,47.30
2022-10-05T00:44:16.096Z,47.61
2022-10-05T00:49:20.997Z,47.59
2022-10-05T00:54:40.634Z,47.32
2022-10-05T00:59:45.533Z,47.50
2022-10-05T01:05:04.438Z,47.39
2022-10-05T01:10:32.734Z,46.82
2022-10-05T01:15:49.770Z,47.07
2022-10-05T01:21:10.401Z,47.04
2022-10-05T01:26:38.001Z,46.79
2022-10-05T01:32:08.290Z,47.04
2022-10-05T01:37:27.377Z,46.64
2022-10-05T01:42:30.471Z,46.58
2022-10-05T01:47:45.951Z,46.32
2022-10-05T01:52:50.734Z,46.34
2022-10-05T01:58:20.283Z,45.66
2022-10-05T02:03:31.011Z,45.23
2022-10-05T02:09:06.057Z,45.06
2022-10-05T02:14:23.097Z,44.73
2022-10-05T02:19:38.056Z,44.30
2022-10-05T02:24:49.021Z,44.39
2022-10-05T02:29:54.230Z,44.32
2022-10-05T02:35:02.151Z,44.70
2022-10-05T02:40:25.657Z,45.01
2022-10-05T02:45:46.993Z,45.32
2022-10-05T02:50:55.893Z,45.41
2022-10-05T02:55:59.389Z,45.84
2022-10-05T03:01:27.707Z,45.75
2022-10-05T03:06:36.642Z,46.46
2022-10-05T03:11:47.037Z,46.06
2022-10-05T03:17:24.946Z,45.78
2022-10-05T03:22:50.232Z,45.75
2022-10-05T03:28:09.118Z,45.83
2022-10-05T03:33:29.514Z,45.92
2022-10-05T03:38:58.542Z,46.24
2022-10-05T03:44:37.761Z,46.61
2022-10-05T03:49:42.833Z,46.86
2022-10-05T03:54:49.404Z,47.13
2022-10-05T04:00:02.648Z,47.26
2022-10-05T04:05:21.893Z,47.60
2022-10-05T04:10:29.174Z,47.35
2022-10-05T04:15:37.836Z,47.29
2022-10-05T04:20:47.606Z,47.28
2022-10-05T04:25:54.293Z,47.12
2022-10-05T04:30:57.244Z,47.19
2022-10-05T04:36:20.897Z,47.50
2022-10-05T04:41:31.995Z,47.27
2022-10-05T04:46:36.798Z,47.58
2022-10-05T04:51:41.919Z,47.65
2022-10-05T04:56:52.861Z,47.83
2022-10-05T05:02:03.581Z,47.92
2022-10-05T05:07:15.294Z,48.21
2022-10-05T05:12:23.127Z,47.88
2022-10-05T05:17:43.376Z,48.18
2022-10-05T05:22:57.466Z,48.17
2022-10-05T05:28:06.078Z,48.78
2022-10-05T05:33:14.018Z,48.89
2022-10-05T05:38:40.509Z,48.89
2022-10-05T05:44:23.907Z,48.97
2022-10-05T05:49:57.385Z,48.96
2022-10-05T05:55:30.325Z,48.63
2022-10-05T06:00:42.340Z,48.49
2022-10-05T06:05:50.037Z,48.55
2022-10-05T06:11:21.982Z,48.40
2022-10-05T06:16:34.048Z,48.47
2022-10-05T06:21:44.537Z,48.97
2022-10-05T06:27:20.981Z,48.59
2022-10-05T06:32:29.649Z,48.50
2022-10-05T06:37:46.083Z,48.83
2022-10-05T06:43:06.167Z,48.46
2022-10-05T06:48:35.221Z,48.79
2022-10-05T06:54:29.387Z,48.54
2022-10-05T07:00:03.944Z,48.50
2022-10-05T07:06:00.312Z,48.01
2022-10-05T07:11:15.128Z,47.58
2022-10-05T07:16:41.551Z,47.30
2022-10-05T07:21:57.544Z,47.05
2022-10-05T07:27:07.074Z,46.66
2022-10-05T07:32:24.191Z,46.39
2022-10-05T07:37:57.830Z,46.18
2022-10-05T07:43:14.666Z,45.87
2022-10-05T07:48:47.435Z,45.46
2022-10-05T07:54:15.886Z,44.85
2022-10-05T07:59:59.613Z,45.19
2022-10-05T08:05:13.508Z,44.74
2022-10-05T08:10:55.344Z,44.47
2022-10-05T08:16:12.681Z,44.41
2022-10-05T08:21:19.644Z,44.17
2022-10-05T08:26:32.069Z,44.21
2022-10-05T08:31:37.390Z,44.46
2022-10-05T08:36:39.145Z,44.61
2022-10-05T08:42:19.494Z,44.75
2022-10-05T08:47:47.359Z,44.88
2022-10-05T08:53:15.019Z,44.92
2022-10-05T08:58:41.351Z,44.90
2022-10-05T09:04:03.885Z,44.87
2022-10-05T09:09:17.825Z,45.34
2022-10-05T09:14:32.656Z,45.69
2022-10-05T09:20:15.166Z,45.95
2022-10-05T09:26:10.393Z,46.16
2022-10-05T09:32:00.643Z,45.68
2022-10-05T09:37:46.262Z,45.70
2022-10-05T09:42:59.979Z,45.72
2022-10-05T09:48:37.505Z,45.52
2022-10-05T09:54:11.821Z,45.55
2022-10-05T09:59:55.046Z,45.39
2022-10-05T10:05:31.907Z,45.31
2022-10-05T10:11:08.311Z,45.32
2022-10-05T10:16:31.224Z,45.36
2022-10-05T10:22:04.512Z,45.03
2022-10-05T10:27:33.610Z,44.81
2022-10-05T10:33:03.279Z,44.72
2022-10-05T10:38:35.951Z,44.71
2022-10-05T10:44:08.500Z,45.44
2022-10-05T10:49:36.795Z,44.63
2022-10-05T10:55:09.818Z,44.56
2022-10-05T11:00:20.297Z,44.37
2022-10-05T11:05:28.150Z,44.32
2022-10-05T11:10:39.227Z,44.00
2022-10-05T11:16:00.831Z,43.97
2022-10-05T11:21:11.919Z,43.82
2022-10-05T11:26:32.587Z,43.63
2022-10-05T11:32:10.131Z,43.25
2022-10-05T11:37:40.208Z,42.79
2022-10-05T11:42:50.659Z,42.69
2022-10-05T11:48:01.248Z,42.89
2022-10-05T11:53:25.367Z,42.43
2022-10-05T11:58:33.775Z,42.24
2022-10-05T12:03:57.174Z,42.03
2022-10-05T12:09:40.246Z,38.22
2022-10-05T12:15:03.385Z,35.90
2022-10-05T12:20:42.141Z,34.91
2022-10-05T12:25:53.742Z,34.70
2022-10-05T12:30:58.648Z,35.65
2022-10-05T12:36:12.258Z,35.61
2022-10-05T12:41:48.152Z,35.22
2022-10-05T12:47:07.220Z,35.03
2022-10-05T12:52:40.129Z,33.95
2022-10-05T12:58:06.641Z,33.74
2022-10-05T13:03:27.786Z,34.24
2022-10-05T13:08:55.722Z,34.64
2022-10-05T13:14:03.354Z,34.78
2022-10-05T13:19:23.793Z,34.65
2022-10-05T13:24:44.029Z,34.50
2022-10-05T13:30:13.421Z,34.71
2022-10-05T13:35:34.595Z,35.32
2022-10-05T13:41:13.190Z,35.41
2022-10-05T13:47:09.251Z,35.44
2022-10-05T13:52:29.267Z,35.05
2022-10-05T13:57:53.072Z,33.17
2022-10-05T14:03:01.074Z,31.33
2022-10-05T14:08:02.911Z,29.04
2022-10-05T14:13:31.975Z,29.39
2022-10-05T14:18:37.867Z,30.58
2022-10-05T14:23:39.710Z,31.17
2022-10-05T14:28:43.736Z,32.05
2022-10-05T14:33:45.648Z,33.39
2022-10-05T14:39:02.186Z,33.53
2022-10-05T14:44:09.904Z,33.79
2022-10-05T14:49:25.788Z,34.56
2022-10-05T14:54:33.684Z,34.48
2022-10-05T14:59:50.794Z,34.93
2022-10-05T15:05:05.454Z,35.72
2022-10-05T15:10:19.252Z,35.81
2022-10-05T15:15:39.787Z,35.82
2022-10-05T15:20:56.304Z,35.91
2022-10-05T15:26:10.737Z,36.11
2022-10-05T15:31:43.001Z,36.25
2022-10-05T15:37:15.126Z,36.50
2022-10-05T15:42:22.659Z,36.95
2022-10-05T15:47:34.335Z,37.29
2022-10-05T15:52:40.788Z,37.44
2022-10-05T15:57:53.589Z,38.05
2022-10-05T16:02:58.330Z,38.33
2022-10-05T16:08:19.504Z,38.33
2022-10-05T16:13:38.053Z,38.48
2022-10-05T16:18:57.538Z,38.97
2022-10-05T16:24:17.434Z,39.07
2022-10-05T16:29:24.030Z,39.21
2022-10-05T16:34:47.108Z,39.39
2022-10-05T16:39:53.211Z,39.82
2022-10-05T16:44:58.073Z,39.65
2022-10-05T16:50:43.241Z,39.67
2022-10-05T16:55:52.637Z,39.68
2022-10-05T17:01:23.541Z,39.61
2022-10-05T17:06:44.436Z,40.00
2022-10-05T17:12:10.586Z,40.17
2022-10-05T17:17:28.208Z,40.40
2022-10-05T17:22:50.893Z,40.71
2022-10-05T17:28:21.975Z,41.00
2022-10-05T17:33:30.582Z,41.35
2022-10-05T17:38:35.365Z,41.38
2022-10-05T17:43:37.793Z,41.37
2022-10-05T17:48:52.519Z,41.37
2022-10-05T17:54:34.063Z,41.36
2022-10-05T17:59:55.795Z,41.36
2022-10-05T18:05:07.069Z,41.40
2022-10-05T18:10:11.967Z,41.62
2022-10-05T18:15:26.379Z,41.69
2022-10-05T18:20:30.421Z,41.92
2022-10-05T18:26:26.642Z,41.94
2022-10-05T18:31:45.409Z,42.70
2022-10-05T18:37:12.368Z,42.76
2022-10-05T18:42:30.333Z,43.08
2022-10-05T18:47:49.596Z,43.03
2022-10-05T18:53:07.690Z,42.61
2022-10-05T18:58:14.496Z,42.58
2022-10-05T19:03:28.243Z,42.59
2022-10-05T19:08:36.348Z,42.69
2022-10-05T19:14:00.910Z,42.69
2022-10-05T19:19:29.411Z,42.67
2022-10-05T19:24:55.867Z,42.35
2022-10-05T19:30:22.080Z,42.59
2022-10-05T19:35:58.341Z,42.80
2022-10-05T19:41:20.178Z,42.81
2022-10-05T19:47:10.258Z,43.00
2022-10-05T19:52:21.147Z,43.03
2022-10-05T19:57:23.134Z,43.08
2022-10-05T20:02:28.126Z,43.19
2022-10-05T20:07:30.031Z,43.26
2022-10-05T20:12:51.103Z,43.24
2022-10-05T20:18:11.795Z,43.26
2022-10-05T20:23:24.630Z,43.36
2022-10-05T20:28:31.343Z,43.64
2022-10-05T20:33:34.532Z,43.68
2022-10-05T20:38:40.575Z,43.63
2022-10-05T20:43:43.326Z,43.59
2022-10-05T20:48:45.893Z,43.71
2022-10-05T20:53:47.698Z,43.47
2022-10-05T20:58:50.483Z,43.32
2022-10-05T21:03:53.608Z,43.16
2022-10-05T21:08:55.771Z,43.30
2022-10-05T21:14:00.001Z,43.16
2022-10-05T21:19:09.609Z,43.20
2022-10-05T21:24:15.567Z,43.13
2022-10-05T21:29:17.480Z,42.93
2022-10-05T21:34:19.348Z,43.04
2022-10-05T21:39:21.221Z,42.89
2022-10-05T21:44:23.004Z,42.86
2022-10-05T21:49:25.877Z,42.81
2022-10-05T21:54:28.708Z,43.06
2022-10-05T21:59:32.993Z,43.23
2022-10-05T22:04:34.807Z,43.18
2022-10-05T22:09:36.627Z,43.31
2022-10-05T22:14:38.482Z,43.32
2022-10-05T22:19:40.738Z,43.84
2022-10-05T22:24:42.658Z,44.02
2022-10-05T22:29:44.632Z,44.44
2022-10-05T22:34:46.523Z,44.65
2022-10-05T22:39:49.070Z,44.72
2022-10-05T22:44:50.867Z,45.17
2022-10-05T22:49:52.697Z,45.24
2022-10-05T22:54:54.703Z,45.15
2022-10-05T22:59:56.513Z,45.34
2022-10-05T23:04:59.121Z,45.37
2022-10-05T23:10:00.960Z,45.78
2022-10-05T23:15:03.406Z,45.85
2022-10-05T23:20:07.475Z,45.99
2022-10-05T23:25:09.599Z,46.00
2022-10-05T23:30:12.954Z,46.30
2022-10-05T23:35:15.132Z,46.36
2022-10-05T23:40:16.988Z,46.36
2022-10-05T23:45:18.803Z,46.56
2022-10-05T23:50:21.241Z,46.47
2022-10-05T23:55:23.092Z,46.72
